createdAt,value
2022-09-30T00:00:12.409Z,94.83
2022-09-30T00:02:40.281Z,94.51
2022-09-30T00:05:08.509Z,94.57
2022-09-30T00:07:36.293Z,94.48
2022-09-30T00:10:04.462Z,94.55
2022-09-30T00:12:32.190Z,94.48
2022-09-30T00:15:01.497Z,94.61
2022-09-30T00:17:29.513Z,95.05
2022-09-30T00:19:57.285Z,95.07
2022-09-30T00:22:25.066Z,94.91
2022-09-30T00:24:53.038Z,95.01
2022-09-30T00:27:22.123Z,94.82
2022-09-30T00:29:49.890Z,94.88
2022-09-30T00:32:19.140Z,94.93
2022-09-30T00:34:46.909Z,94.75
2022-09-30T00:37:16.675Z,95.15
2022-09-30T00:39:44.459Z,94.96
2022-09-30T00:42:14.514Z,94.77
2022-09-30T00:44:46.788Z,94.93
2022-09-30T00:47:32.701Z,94.99
2022-09-30T00:50:04.405Z,95.20
2022-09-30T00:52:33.448Z,95.10
2022-09-30T00:55:03.914Z,95.20
2022-09-30T00:57:31.949Z,95.29
2022-09-30T00:59:59.797Z,95.32
2022-09-30T01:02:27.809Z,95.39
2022-09-30T01:04:57.049Z,95.37
2022-09-30T01:07:26.361Z,95.19
2022-09-30T01:09:54.348Z,95.33
2022-09-30T01:12:23.945Z,95.43
2022-09-30T01:14:53.523Z,95.34
2022-09-30T01:17:26.167Z,95.12
2022-09-30T01:20:10.901Z,95.54
2022-09-30T01:22:47.262Z,95.52
2022-09-30T01:25:38.035Z,95.46
2022-09-30T01:28:29.972Z,95.52
2022-09-30T01:31:12.340Z,95.54
2022-09-30T01:33:46.153Z,95.42
2022-09-30T01:36:21.125Z,95.61
2022-09-30T01:38:51.394Z,95.52
2022-09-30T01:41:24.695Z,95.68
2022-09-30T01:43:58.694Z,95.55
2022-09-30T01:46:33.925Z,95.67
2022-09-30T01:49:06.527Z,95.68
2022-09-30T01:51:38.872Z,95.81
2022-09-30T01:54:13.872Z,95.77
2022-09-30T01:56:43.174Z,95.61
2022-09-30T01:59:14.138Z,95.66
2022-09-30T02:01:48.076Z,95.98
2022-09-30T02:04:19.666Z,95.75
2022-09-30T02:06:50.527Z,95.97
2022-09-30T02:09:23.074Z,95.82
2022-09-30T02:11:52.772Z,95.86
2022-09-30T02:14:24.560Z,96.04
2022-09-30T02:16:56.569Z,95.79
2022-09-30T02:19:28.817Z,96.04
2022-09-30T02:22:00.245Z,95.97
2022-09-30T02:24:32.014Z,96.06
2022-09-30T02:27:02.413Z,95.98
2022-09-30T02:29:32.336Z,95.96
2022-09-30T02:32:06.060Z,96.05
2022-09-30T02:34:36.683Z,95.84
2022-09-30T02:37:06.605Z,96.16
2022-09-30T02:39:38.712Z,96.25
2022-09-30T02:42:11.067Z,95.91
2022-09-30T02:44:40.045Z,95.92
2022-09-30T02:47:18.081Z,96.21
2022-09-30T02:49:48.443Z,96.34
2022-09-30T02:52:22.042Z,96.32
2022-09-30T02:54:53.598Z,95.98
2022-09-30T02:57:24.134Z,96.36
2022-09-30T02:59:53.153Z,96.48
2022-09-30T03:02:22.468Z,95.93
2022-09-30T03:04:50.790Z,96.38
2022-09-30T03:07:19.061Z,96.35
2022-09-30T03:09:47.011Z,96.03
2022-09-30T03:12:23.181Z,95.99
2022-09-30T03:15:00.022Z,96.20
2022-09-30T03:17:38.081Z,96.00
2022-09-30T03:20:21.930Z,96.26
2022-09-30T03:23:03.978Z,96.44
2022-09-30T03:25:36.247Z,96.50
2022-09-30T03:28:22.833Z,96.37
2022-09-30T03:30:56.909Z,96.40
2022-09-30T03:33:30.880Z,96.13
2022-09-30T03:36:01.201Z,96.01
2022-09-30T03:38:36.487Z,96.20
2022-09-30T03:41:08.084Z,96.41
2022-09-30T03:43:37.463Z,96.27
2022-09-30T03:46:11.384Z,96.61
2022-09-30T03:48:41.326Z,96.71
2022-09-30T03:51:09.859Z,96.21
2022-09-30T03:53:41.214Z,96.24
2022-09-30T03:56:09.167Z,96.47
2022-09-30T03:58:40.252Z,96.42
2022-09-30T04:01:09.145Z,96.59
2022-09-30T04:03:37.015Z,96.26
2022-09-30T04:06:06.393Z,96.55
2022-09-30T04:08:34.148Z,96.28
2022-09-30T04:11:01.918Z,96.36
2022-09-30T04:13:30.148Z,96.34
2022-09-30T04:15:58.471Z,96.34
2022-09-30T04:18:26.338Z,96.75
2022-09-30T04:20:54.171Z,96.73
2022-09-30T04:23:27.246Z,96.46
2022-09-30T04:25:55.192Z,96.35
2022-09-30T04:28:23.100Z,96.77
2022-09-30T04:30:51.042Z,96.81
2022-09-30T04:33:18.830Z,96.73
2022-09-30T04:35:46.660Z,96.64
2022-09-30T04:38:14.449Z,96.59
2022-09-30T04:40:43.597Z,96.96
2022-09-30T04:43:11.518Z,96.95
2022-09-30T04:45:44.151Z,96.68
2022-09-30T04:48:12.216Z,96.82
2022-09-30T04:50:40.032Z,96.82
2022-09-30T04:53:07.814Z,96.73
2022-09-30T04:55:35.945Z,97.03
2022-09-30T04:58:05.069Z,97.09
2022-09-30T05:00:33.062Z,96.76
2022-09-30T05:03:01.084Z,96.90
2022-09-30T05:05:28.886Z,96.69
2022-09-30T05:08:00.404Z,96.93
2022-09-30T05:10:29.945Z,96.84
2022-09-30T05:12:58.136Z,96.73
2022-09-30T05:15:27.477Z,97.08
2022-09-30T05:17:55.261Z,97.10
2022-09-30T05:20:23.045Z,97.18
2022-09-30T05:22:54.931Z,96.77
2022-09-30T05:25:23.392Z,96.77
2022-09-30T05:27:51.245Z,96.63
2022-09-30T05:30:18.998Z,97.30
2022-09-30T05:32:48.171Z,97.23
2022-09-30T05:35:15.977Z,97.21
2022-09-30T05:37:43.982Z,97.20
2022-09-30T05:40:11.834Z,96.99
2022-09-30T05:42:39.630Z,97.43
2022-09-30T05:45:07.911Z,96.98
2022-09-30T05:47:35.688Z,97.17
2022-09-30T05:50:05.245Z,97.44
2022-09-30T05:52:33.269Z,97.02
2022-09-30T05:55:01.561Z,97.21
2022-09-30T05:57:29.601Z,97.36
2022-09-30T05:59:57.984Z,97.26
2022-09-30T06:02:26.000Z,96.96
2022-09-30T06:04:53.809Z,97.15
2022-09-30T06:07:22.948Z,97.05
2022-09-30T06:09:51.455Z,97.19
2022-09-30T06:12:19.266Z,97.12
2022-09-30T06:14:47.572Z,97.03
2022-09-30T06:17:18.506Z,96.99
2022-09-30T06:19:46.476Z,97.32
2022-09-30T06:22:14.268Z,96.96
2022-09-30T06:24:43.397Z,96.91
2022-09-30T06:27:11.348Z,96.85
2022-09-30T06:29:39.639Z,96.73
2022-09-30T06:32:08.025Z,96.89
2022-09-30T06:34:35.904Z,97.17
2022-09-30T06:37:04.059Z,97.34
2022-09-30T06:39:31.844Z,96.80
2022-09-30T06:42:00.982Z,96.98
2022-09-30T06:44:45.152Z,95.25
2022-09-30T06:47:23.266Z,85.69
2022-09-30T06:49:58.428Z,75.40
2022-09-30T06:52:27.225Z,77.31
2022-09-30T06:54:56.586Z,64.85
2022-09-30T06:57:27.693Z,60.67
2022-09-30T06:59:55.712Z,65.56
2022-09-30T07:02:23.528Z,52.37
2022-09-30T07:04:52.403Z,48.94
2022-09-30T07:07:25.012Z,48.74
2022-09-30T07:09:56.343Z,50.55
2022-09-30T07:12:28.875Z,49.35
2022-09-30T07:14:56.987Z,44.26
2022-09-30T07:17:24.825Z,46.54
2022-09-30T07:19:53.087Z,45.64
2022-09-30T07:22:35.637Z,46.71
2022-09-30T07:25:04.732Z,45.71
2022-09-30T07:27:34.283Z,45.20
2022-09-30T07:30:09.767Z,40.58
2022-09-30T07:32:39.677Z,39.60
2022-09-30T07:35:07.798Z,37.98
2022-09-30T07:37:36.829Z,37.52
2022-09-30T07:40:05.374Z,38.97
2022-09-30T07:42:37.493Z,39.54
2022-09-30T07:45:06.181Z,40.92
2022-09-30T07:47:34.006Z,39.83
2022-09-30T07:50:01.990Z,38.86
2022-09-30T07:52:29.962Z,37.33
2022-09-30T07:54:57.908Z,34.93
2022-09-30T07:57:25.767Z,34.23
2022-09-30T07:59:55.135Z,34.49
2022-09-30T08:02:24.560Z,33.52
2022-09-30T08:04:52.403Z,34.90
2022-09-30T08:07:21.030Z,31.88
2022-09-30T08:09:49.053Z,33.48
2022-09-30T08:12:16.957Z,34.64
2022-09-30T08:14:45.426Z,32.41
2022-09-30T08:17:15.063Z,34.46
2022-09-30T08:19:44.610Z,35.97
2022-09-30T08:22:13.845Z,35.06
2022-09-30T08:24:41.684Z,36.19
2022-09-30T08:27:09.673Z,34.92
2022-09-30T08:32:26.796Z,34.27
2022-09-30T08:34:54.567Z,30.83
2022-09-30T08:37:23.740Z,29.74
2022-09-30T08:39:51.502Z,27.90
2022-09-30T08:42:49.175Z,29.61
2022-09-30T08:45:20.949Z,32.88
2022-09-30T08:47:57.223Z,31.24
2022-09-30T08:50:30.748Z,30.14
2022-09-30T08:53:00.444Z,30.52
2022-09-30T08:55:32.488Z,34.76
2022-09-30T08:58:03.475Z,33.76
2022-09-30T09:00:31.686Z,32.16
2022-09-30T09:03:03.106Z,30.65
2022-09-30T09:05:35.260Z,29.68
2022-09-30T09:08:08.666Z,27.96
2022-09-30T09:10:42.085Z,27.06
2022-09-30T09:13:18.621Z,27.61
2022-09-30T09:15:51.899Z,26.31
2022-09-30T09:18:37.502Z,29.62
2022-09-30T09:21:23.370Z,27.76
2022-09-30T09:23:52.635Z,29.42
2022-09-30T09:26:20.603Z,27.05
2022-09-30T09:28:58.711Z,24.24
2022-09-30T09:31:27.095Z,24.25
2022-09-30T09:33:57.703Z,25.99
2022-09-30T09:36:33.879Z,27.93
2022-09-30T09:39:08.585Z,26.33
2022-09-30T09:41:41.223Z,25.10
2022-09-30T09:44:15.757Z,25.13
2022-09-30T09:46:46.505Z,25.07
2022-09-30T09:49:29.929Z,23.64
2022-09-30T09:52:15.838Z,22.01
2022-09-30T09:54:46.191Z,25.02
2022-09-30T09:57:15.948Z,27.66
2022-09-30T09:59:55.563Z,27.37
2022-09-30T10:02:24.089Z,25.96
2022-09-30T10:04:59.866Z,28.02
2022-09-30T10:07:29.760Z,25.94
2022-09-30T10:10:09.526Z,26.25
2022-09-30T10:12:37.451Z,25.67
2022-09-30T10:15:12.740Z,25.32
2022-09-30T10:17:40.982Z,24.28
2022-09-30T10:20:18.654Z,26.59
2022-09-30T10:22:48.260Z,26.52
2022-09-30T10:25:22.811Z,24.06
2022-09-30T10:27:53.163Z,26.74
2022-09-30T10:30:35.088Z,24.64
2022-09-30T10:33:04.520Z,27.46
2022-09-30T10:35:32.346Z,24.17
2022-09-30T10:38:01.383Z,23.63
2022-09-30T10:40:31.150Z,24.54
2022-09-30T10:42:59.377Z,22.23
2022-09-30T10:45:30.583Z,26.79
2022-09-30T10:47:59.972Z,30.99
2022-09-30T10:50:27.924Z,33.83
2022-09-30T10:52:58.819Z,37.18
2022-09-30T10:55:29.154Z,38.90
2022-09-30T10:58:00.642Z,37.12
2022-09-30T11:00:31.635Z,39.15
2022-09-30T11:03:01.919Z,39.70
2022-09-30T11:05:30.918Z,37.50
2022-09-30T11:08:02.070Z,38.97
2022-09-30T11:10:34.941Z,42.44
2022-09-30T11:13:08.314Z,31.31
2022-09-30T11:15:41.332Z,28.26
2022-09-30T11:18:18.228Z,31.10
2022-09-30T11:20:56.731Z,25.77
2022-09-30T11:23:29.467Z,20.15
2022-09-30T11:26:02.079Z,25.52
2022-09-30T11:28:38.138Z,27.41
2022-09-30T11:31:14.722Z,22.95
2022-09-30T11:33:50.198Z,29.47
2022-09-30T11:36:23.509Z,29.67
2022-09-30T11:39:06.386Z,27.44
2022-09-30T11:41:36.812Z,33.34
2022-09-30T11:44:12.366Z,34.02
2022-09-30T11:46:49.486Z,33.00
2022-09-30T11:49:28.209Z,25.71
2022-09-30T11:52:03.947Z,22.43
2022-09-30T11:54:36.221Z,23.30
2022-09-30T11:57:07.910Z,23.10
2022-09-30T11:59:40.286Z,24.55
2022-09-30T12:02:17.491Z,22.96
2022-09-30T12:04:46.370Z,23.55
2022-09-30T12:07:17.073Z,24.22
2022-09-30T12:09:47.227Z,22.11
2022-09-30T12:12:16.946Z,21.30
2022-09-30T12:14:48.123Z,24.96
2022-09-30T12:17:20.698Z,26.30
2022-09-30T12:19:50.913Z,26.35
2022-09-30T12:22:21.121Z,24.21
2022-09-30T12:24:48.969Z,23.86
2022-09-30T12:27:19.993Z,25.82
2022-09-30T12:30:11.515Z,23.63
2022-09-30T12:32:58.420Z,25.17
2022-09-30T12:35:34.432Z,23.43
2022-09-30T12:38:09.490Z,22.08
2022-09-30T12:40:50.182Z,21.44
2022-09-30T12:43:42.900Z,23.61
2022-09-30T12:46:16.767Z,25.78
2022-09-30T12:48:47.318Z,26.38
2022-09-30T12:51:22.788Z,25.57
2022-09-30T12:53:52.601Z,29.13
2022-09-30T12:56:20.644Z,32.88
2022-09-30T12:58:51.009Z,31.24
2022-09-30T13:01:27.535Z,28.96
2022-09-30T13:04:15.767Z,31.63
2022-09-30T13:07:02.347Z,32.46
2022-09-30T13:09:31.545Z,28.61
2022-09-30T13:12:14.246Z,29.99
2022-09-30T13:14:43.888Z,35.18
2022-09-30T13:17:36.268Z,37.74
2022-09-30T13:20:36.575Z,35.35
2022-09-30T13:23:04.488Z,28.56
2022-09-30T13:25:53.870Z,34.49
2022-09-30T13:28:29.669Z,37.44
2022-09-30T13:31:12.679Z,38.72
2022-09-30T13:33:45.830Z,37.73
2022-09-30T13:36:28.592Z,31.87
2022-09-30T13:39:15.352Z,28.70
2022-09-30T13:41:45.111Z,33.56
2022-09-30T13:44:15.745Z,39.25
2022-09-30T13:46:47.759Z,36.26
2022-09-30T13:49:18.687Z,30.53
2022-09-30T13:51:48.630Z,36.47
2022-09-30T13:54:23.341Z,40.71
2022-09-30T13:56:52.363Z,36.65
2022-09-30T13:59:28.713Z,32.22
2022-09-30T14:02:06.869Z,33.74
2022-09-30T14:04:48.249Z,31.98
2022-09-30T14:07:29.343Z,35.51
2022-09-30T14:10:09.194Z,30.00
2022-09-30T14:12:52.150Z,27.88
2022-09-30T14:15:38.167Z,31.65
2022-09-30T14:18:20.922Z,33.39
2022-09-30T14:20:59.400Z,35.84
2022-09-30T14:23:29.122Z,38.31
2022-09-30T14:26:00.829Z,39.52
2022-09-30T14:28:32.767Z,40.05
2022-09-30T14:31:13.141Z,39.97
2022-09-30T14:33:51.976Z,38.78
2022-09-30T14:36:21.764Z,38.83
2022-09-30T14:38:53.458Z,39.17
2022-09-30T14:41:23.257Z,41.78
2022-09-30T14:43:53.880Z,41.44
2022-09-30T14:46:27.605Z,41.71
2022-09-30T14:48:57.135Z,42.11
2022-09-30T14:51:27.415Z,42.74
2022-09-30T14:53:57.610Z,43.00
2022-09-30T14:56:29.431Z,42.58
2022-09-30T14:58:59.276Z,42.86
2022-09-30T15:01:30.289Z,43.54
2022-09-30T15:03:59.890Z,43.76
2022-09-30T15:06:29.421Z,45.01
2022-09-30T15:09:03.394Z,46.24
2022-09-30T15:11:37.214Z,46.11
2022-09-30T15:14:09.906Z,45.71
2022-09-30T15:16:45.432Z,46.75
2022-09-30T15:19:18.169Z,46.85
2022-09-30T15:21:48.390Z,46.77
2022-09-30T15:24:18.390Z,47.53
2022-09-30T15:26:48.996Z,48.11
2022-09-30T15:29:17.562Z,48.20
2022-09-30T15:31:47.105Z,49.19
2022-09-30T15:34:20.423Z,49.46
2022-09-30T15:36:57.867Z,50.33
2022-09-30T15:39:49.414Z,51.44
2022-09-30T15:42:28.934Z,51.81
2022-09-30T15:44:59.311Z,51.11
2022-09-30T15:47:28.562Z,51.32
2022-09-30T15:49:56.600Z,51.11
2022-09-30T15:52:29.324Z,51.51
2022-09-30T15:54:59.003Z,51.61
2022-09-30T15:57:45.521Z,51.29
2022-09-30T16:00:29.640Z,51.72
2022-09-30T16:03:06.944Z,52.28
2022-09-30T16:05:35.091Z,52.73
2022-09-30T16:08:07.834Z,52.14
2022-09-30T16:10:37.775Z,52.64
2022-09-30T16:13:07.021Z,52.68
2022-09-30T16:15:38.718Z,52.65
2022-09-30T16:18:07.032Z,52.83
2022-09-30T16:20:34.924Z,52.75
2022-09-30T16:23:04.253Z,52.44
2022-09-30T16:25:33.521Z,53.21
2022-09-30T16:28:03.424Z,53.38
2022-09-30T16:30:32.089Z,53.43
2022-09-30T16:33:03.775Z,53.95
2022-09-30T16:35:33.229Z,54.23
2022-09-30T16:38:02.159Z,54.62
2022-09-30T16:40:31.261Z,54.67
2022-09-30T16:43:01.355Z,54.58
2022-09-30T16:45:32.735Z,54.82
2022-09-30T16:48:01.666Z,54.14
2022-09-30T16:50:32.190Z,54.84
2022-09-30T16:53:00.100Z,55.38
2022-09-30T16:55:28.395Z,55.54
2022-09-30T16:57:57.953Z,55.64
2022-09-30T17:00:26.253Z,56.59
2022-09-30T17:02:55.773Z,56.80
2022-09-30T17:05:24.877Z,57.06
2022-09-30T17:07:53.856Z,57.75
2022-09-30T17:10:23.820Z,58.02
2022-09-30T17:12:52.104Z,57.54
2022-09-30T17:15:20.563Z,57.97
2022-09-30T17:17:48.601Z,57.63
2022-09-30T17:20:17.862Z,58.11
2022-09-30T17:22:45.971Z,58.44
2022-09-30T17:25:14.181Z,58.05
2022-09-30T17:27:42.206Z,58.52
2022-09-30T17:30:10.599Z,58.41
2022-09-30T17:32:38.671Z,58.61
2022-09-30T17:35:08.296Z,58.79
2022-09-30T17:37:41.302Z,58.55
2022-09-30T17:40:41.130Z,58.45
2022-09-30T17:43:11.186Z,58.31
2022-09-30T17:45:39.822Z,58.40
2022-09-30T17:48:08.813Z,58.75
2022-09-30T17:50:36.979Z,59.37
2022-09-30T17:53:07.646Z,59.62
2022-09-30T17:55:36.201Z,59.13
2022-09-30T17:58:04.187Z,59.47
2022-09-30T18:00:33.421Z,59.44
2022-09-30T18:03:02.764Z,59.24
2022-09-30T18:05:30.740Z,58.92
2022-09-30T18:07:58.775Z,58.86
2022-09-30T18:10:28.348Z,58.98
2022-09-30T18:12:56.454Z,59.74
2022-09-30T18:15:24.354Z,59.83
2022-09-30T18:17:52.241Z,60.31
2022-09-30T18:20:23.346Z,60.61
2022-09-30T18:22:53.589Z,61.00
2022-09-30T18:25:22.603Z,61.12
2022-09-30T18:27:53.257Z,61.44
2022-09-30T18:30:21.634Z,61.75
2022-09-30T18:32:50.433Z,62.07
2022-09-30T18:35:20.103Z,62.00
2022-09-30T18:37:49.578Z,62.05
2022-09-30T18:40:18.163Z,62.07
2022-09-30T18:42:46.263Z,62.58
2022-09-30T18:45:15.553Z,63.10
2022-09-30T18:47:44.803Z,63.96
2022-09-30T18:50:13.745Z,63.91
2022-09-30T18:52:41.885Z,64.50
2022-09-30T18:55:10.514Z,65.06
2022-09-30T18:57:39.008Z,66.13
2022-09-30T19:00:10.189Z,66.76
2022-09-30T19:02:40.625Z,68.10
2022-09-30T19:05:09.064Z,68.79
2022-09-30T19:07:39.118Z,69.30
2022-09-30T19:10:07.970Z,69.56
2022-09-30T19:12:36.423Z,69.11
2022-09-30T19:15:04.765Z,69.49
2022-09-30T19:17:32.957Z,69.55
2022-09-30T19:20:02.396Z,69.90
2022-09-30T19:22:30.704Z,70.37
2022-09-30T19:24:58.603Z,69.94
2022-09-30T19:27:27.053Z,69.95
2022-09-30T19:29:59.201Z,69.34
2022-09-30T19:32:28.920Z,68.56
2022-09-30T19:35:05.346Z,68.75
2022-09-30T19:37:35.648Z,68.69
2022-09-30T19:40:16.726Z,69.22
2022-09-30T19:42:48.982Z,68.32
2022-09-30T19:45:17.530Z,68.43
2022-09-30T19:47:45.907Z,68.39
2022-09-30T19:50:13.878Z,68.51
2022-09-30T19:52:55.057Z,69.01
2022-09-30T19:55:25.443Z,69.06
2022-09-30T19:57:53.387Z,68.76
2022-09-30T20:00:21.611Z,68.89
2022-09-30T20:02:50.606Z,68.83
2022-09-30T20:05:18.849Z,69.24
2022-09-30T20:07:50.866Z,69.13
2022-09-30T20:10:19.367Z,69.20
2022-09-30T20:12:47.321Z,69.79
2022-09-30T20:15:32.918Z,70.33
2022-09-30T20:18:01.011Z,69.98
2022-09-30T20:20:42.133Z,70.55
2022-09-30T20:23:11.563Z,70.20
2022-09-30T20:25:39.497Z,69.83
2022-09-30T20:28:07.850Z,70.34
2022-09-30T20:30:39.539Z,70.69
2022-09-30T20:33:08.361Z,70.53
2022-09-30T20:35:36.570Z,70.69
2022-09-30T20:38:04.613Z,69.96
2022-09-30T20:40:35.216Z,69.78
2022-09-30T20:43:03.997Z,69.40
2022-09-30T20:45:31.977Z,68.84
2022-09-30T20:47:59.958Z,68.36
2022-09-30T20:50:36.772Z,67.84
2022-09-30T20:53:06.144Z,67.49
2022-09-30T20:55:36.345Z,67.26
2022-09-30T20:58:04.917Z,66.92
2022-09-30T21:00:34.094Z,67.06
2022-09-30T21:03:02.106Z,66.63
2022-09-30T21:05:30.968Z,67.13
2022-09-30T21:07:59.275Z,65.95
2022-09-30T21:10:28.385Z,66.13
2022-09-30T21:12:58.676Z,65.66
2022-09-30T21:15:26.652Z,65.29
2022-09-30T21:17:54.843Z,65.10
2022-09-30T21:20:22.806Z,64.71
2022-09-30T21:22:53.290Z,64.55
2022-09-30T21:25:21.661Z,64.55
2022-09-30T21:27:49.900Z,64.34
2022-09-30T21:30:19.249Z,64.32
2022-09-30T21:32:47.243Z,64.40
2022-09-30T21:35:15.281Z,64.18
2022-09-30T21:37:43.988Z,64.11
2022-09-30T21:40:12.394Z,63.40
2022-09-30T21:42:40.282Z,63.54
2022-09-30T21:45:08.741Z,63.24
2022-09-30T21:47:38.029Z,63.74
2022-09-30T21:50:06.746Z,63.46
2022-09-30T21:52:34.763Z,63.59
2022-09-30T21:55:02.983Z,63.10
2022-09-30T21:57:30.858Z,63.05
2022-09-30T21:59:58.743Z,63.09
2022-09-30T22:02:26.837Z,62.52
2022-09-30T22:04:56.271Z,62.81
2022-09-30T22:07:25.079Z,62.81
2022-09-30T22:09:53.072Z,62.46
2022-09-30T22:12:22.139Z,62.57
2022-09-30T22:14:50.056Z,62.99
2022-09-30T22:17:18.105Z,62.64
2022-09-30T22:19:46.036Z,62.88
2022-09-30T22:22:15.309Z,63.31
2022-09-30T22:24:43.218Z,63.24
2022-09-30T22:27:11.283Z,63.38
2022-09-30T22:29:39.327Z,63.00
2022-09-30T22:32:07.296Z,63.13
2022-09-30T22:34:53.012Z,62.72
2022-09-30T22:37:51.191Z,63.06
2022-09-30T22:40:19.228Z,62.77
2022-09-30T22:42:48.905Z,63.24
2022-09-30T22:45:16.866Z,62.82
2022-09-30T22:47:45.713Z,63.21
2022-09-30T22:50:13.838Z,63.17
2022-09-30T22:52:43.352Z,63.22
2022-09-30T22:55:11.306Z,63.04
2022-09-30T22:57:39.271Z,63.03
2022-09-30T23:00:07.870Z,62.92
2022-09-30T23:02:35.805Z,63.19
2022-09-30T23:05:04.274Z,63.02
2022-09-30T23:07:32.197Z,62.98
2022-09-30T23:10:01.461Z,63.33
2022-09-30T23:12:30.082Z,62.65
2022-09-30T23:14:58.371Z,63.01
2022-09-30T23:17:26.797Z,62.69
2022-09-30T23:19:54.847Z,62.98
2022-09-30T23:22:22.842Z,63.18
2022-09-30T23:24:50.774Z,62.86
2022-09-30T23:27:20.059Z,63.08
2022-09-30T23:29:48.085Z,63.02
2022-09-30T23:32:43.867Z,62.97
2022-09-30T23:35:12.983Z,62.99
2022-09-30T23:37:40.968Z,63.01
2022-09-30T23:40:09.910Z,63.11
2022-09-30T23:42:39.161Z,63.13
2022-09-30T23:45:07.652Z,63.20
2022-09-30T23:47:35.746Z,63.36
2022-09-30T23:50:03.787Z,63.10
2022-09-30T23:52:31.745Z,63.28
2022-09-30T23:54:59.697Z,63.09
2022-09-30T23:57:27.640Z,63.05
2022-09-30T23:59:57.037Z,63.40
